createdAt,value
2022-12-25T00:02:13.531Z,40.30
2022-12-25T00:04:40.245Z,30.60
2022-12-25T00:07:06.880Z,39.50
2022-12-25T00:09:33.529Z,30.05
2022-12-25T00:12:00.115Z,30.98
2022-12-25T00:14:26.756Z,39.30
2022-12-25T00:16:53.402Z,34.08
2022-12-25T00:19:20.047Z,29.02
2022-12-25T00:21:46.703Z,32.85
2022-12-25T00:24:13.285Z,36.78
2022-12-25T00:26:39.950Z,26.33
2022-12-25T00:29:06.588Z,39.42
2022-12-25T00:31:34.525Z,35.50
2022-12-25T00:34:01.325Z,29.25
2022-12-25T00:36:27.917Z,36.00
2022-12-25T00:38:54.587Z,34.33
2022-12-25T00:41:43.219Z,29.48
2022-12-25T00:44:13.385Z,29.75
2022-12-25T00:46:40.536Z,28.70
2022-12-25T00:49:07.307Z,45.33
2022-12-25T00:51:33.996Z,25.15
2022-12-25T00:54:00.819Z,29.58
2022-12-25T00:56:27.830Z,35.17
2022-12-25T00:58:55.156Z,28.75
2022-12-25T01:01:22.063Z,23.52
2022-12-25T01:03:48.937Z,30.63
2022-12-25T01:06:15.546Z,39.65
2022-12-25T01:09:01.810Z,32.33
2022-12-25T01:11:29.367Z,31.92
2022-12-25T01:13:56.074Z,24.90
2022-12-25T01:16:23.004Z,32.10
2022-12-25T01:18:49.676Z,39.10
2022-12-25T01:21:18.115Z,28.15
2022-12-25T01:23:45.089Z,32.75
2022-12-25T01:26:14.135Z,35.55
2022-12-25T01:28:41.371Z,40.33
2022-12-25T01:31:14.398Z,31.77
2022-12-25T01:33:42.396Z,32.60
2022-12-25T01:36:16.023Z,37.33
2022-12-25T01:38:43.925Z,27.08
2022-12-25T01:41:11.967Z,31.08
2022-12-25T01:44:02.443Z,28.42
2022-12-25T01:46:30.435Z,35.05
2022-12-25T01:49:01.785Z,30.88
2022-12-25T01:51:48.182Z,27.42
2022-12-25T01:54:25.959Z,33.72
2022-12-25T01:56:55.277Z,36.72
2022-12-25T01:59:25.962Z,33.67
2022-12-25T02:01:53.205Z,23.98
2022-12-25T02:04:40.903Z,24.55
2022-12-25T02:07:13.184Z,28.90
2022-12-25T02:09:40.121Z,30.40
2022-12-25T02:12:08.706Z,27.95
2022-12-25T02:14:37.370Z,39.50
2022-12-25T02:17:15.938Z,24.17
2022-12-25T02:19:48.895Z,30.00
2022-12-25T02:22:34.080Z,27.02
2022-12-25T02:25:10.805Z,28.88
2022-12-25T02:28:14.726Z,26.95
2022-12-25T02:30:47.288Z,28.42
2022-12-25T02:33:52.429Z,34.03
2022-12-25T02:36:24.852Z,22.75
2022-12-25T02:39:28.244Z,22.75
2022-12-25T02:42:00.132Z,24.85
2022-12-25T02:47:33.100Z,37.00
2022-12-25T02:50:19.569Z,29.08
2022-12-25T02:53:06.433Z,38.55
2022-12-25T02:55:56.947Z,26.60
2022-12-25T02:58:43.744Z,29.75
2022-12-25T03:01:33.205Z,25.58
2022-12-25T03:04:23.485Z,32.67
2022-12-25T03:07:02.302Z,32.53
2022-12-25T03:09:52.966Z,37.72
2022-12-25T03:12:41.039Z,28.60
2022-12-25T03:15:28.338Z,30.73
2022-12-25T03:17:56.806Z,29.52
2022-12-25T03:20:42.267Z,30.00
2022-12-25T03:23:29.268Z,25.83
2022-12-25T03:26:14.730Z,35.70
2022-12-25T03:28:41.371Z,33.58
2022-12-25T03:31:20.377Z,31.30
2022-12-25T03:34:11.650Z,33.38
2022-12-25T03:37:34.808Z,37.50
2022-12-25T03:40:32.877Z,24.52
2022-12-25T03:43:30.433Z,31.02
2022-12-25T03:46:22.541Z,31.83
2022-12-25T03:49:13.230Z,27.05
2022-12-25T03:52:00.744Z,26.63
2022-12-25T03:54:49.463Z,29.92
2022-12-25T03:57:34.698Z,29.17
2022-12-25T04:00:20.078Z,28.20
2022-12-25T04:03:05.441Z,25.50
2022-12-25T04:05:50.791Z,29.50
2022-12-25T04:08:36.176Z,33.72
2022-12-25T04:11:21.385Z,25.40
2022-12-25T04:14:06.700Z,25.33
2022-12-25T04:16:52.012Z,26.98
2022-12-25T04:19:37.362Z,29.95
2022-12-25T04:22:22.843Z,26.88
2022-12-25T04:25:08.235Z,21.92
2022-12-25T04:27:53.647Z,27.75
2022-12-25T04:30:38.972Z,24.65
2022-12-25T04:33:24.250Z,27.63
2022-12-25T04:36:09.300Z,21.40
2022-12-25T04:38:36.907Z,29.52
2022-12-25T04:41:04.085Z,28.00
2022-12-25T04:43:30.714Z,27.13
2022-12-25T04:45:59.529Z,25.08
2022-12-25T04:48:27.277Z,25.60
2022-12-25T04:50:54.063Z,26.15
2022-12-25T04:53:20.837Z,19.52
2022-12-25T04:55:47.465Z,20.13
2022-12-25T04:58:14.435Z,24.60
2022-12-25T05:00:41.266Z,24.33
2022-12-25T05:03:08.136Z,18.38
2022-12-25T05:05:38.195Z,21.98
2022-12-25T05:08:05.730Z,20.05
2022-12-25T05:10:32.366Z,18.42
2022-12-25T05:12:59.189Z,23.50
2022-12-25T05:15:25.814Z,22.13
2022-12-25T05:17:52.450Z,26.33
2022-12-25T05:20:19.093Z,21.27
2022-12-25T05:22:45.724Z,22.02
2022-12-25T05:25:12.392Z,20.48
2022-12-25T05:27:39.071Z,22.63
2022-12-25T05:30:06.393Z,27.30
2022-12-25T05:32:33.033Z,18.70
2022-12-25T05:35:00.362Z,20.05
2022-12-25T05:37:27.095Z,20.27
2022-12-25T05:39:53.704Z,22.25
2022-12-25T05:42:20.349Z,18.63
2022-12-25T05:44:46.927Z,20.45
2022-12-25T05:47:13.521Z,16.20
2022-12-25T05:49:40.183Z,14.68
2022-12-25T05:52:06.763Z,20.35
2022-12-25T05:54:34.900Z,19.95
2022-12-25T05:57:01.847Z,18.27
2022-12-25T05:59:33.006Z,18.60
2022-12-25T06:02:00.021Z,19.88
2022-12-25T06:04:26.825Z,13.55
2022-12-25T06:06:53.515Z,17.92
2022-12-25T06:09:20.186Z,21.50
2022-12-25T06:11:46.905Z,18.35
2022-12-25T06:14:15.412Z,19.83
2022-12-25T06:16:42.573Z,12.70
2022-12-25T06:19:09.319Z,14.80
2022-12-25T06:21:35.979Z,15.00
2022-12-25T06:24:02.920Z,13.65
2022-12-25T06:26:29.579Z,17.08
2022-12-25T06:28:56.162Z,14.43
2022-12-25T06:31:24.877Z,15.30
2022-12-25T06:33:51.809Z,19.80
2022-12-25T06:36:21.325Z,16.02
2022-12-25T06:38:48.042Z,13.23
2022-12-25T06:41:17.334Z,21.17
2022-12-25T06:43:47.340Z,13.02
2022-12-25T06:46:14.014Z,15.40
2022-12-25T06:48:41.520Z,14.98
2022-12-25T06:51:08.250Z,11.38
2022-12-25T06:53:39.713Z,11.70
2022-12-25T06:56:10.361Z,11.57
2022-12-25T06:58:36.952Z,14.93
2022-12-25T07:01:15.314Z,10.13
2022-12-25T07:03:44.647Z,11.70
2022-12-25T07:06:11.374Z,11.88
2022-12-25T07:08:37.997Z,10.13
2022-12-25T07:11:04.881Z,11.50
2022-12-25T07:13:31.524Z,16.20
2022-12-25T07:15:59.205Z,12.23
2022-12-25T07:18:26.640Z,13.93
2022-12-25T07:20:55.581Z,10.90
2022-12-25T07:23:22.848Z,11.30
2022-12-25T07:25:56.443Z,12.38
2022-12-25T07:28:23.128Z,13.80
2022-12-25T07:30:49.870Z,10.15
2022-12-25T07:33:16.902Z,12.10
2022-12-25T07:35:43.975Z,16.48
2022-12-25T07:38:11.299Z,13.48
2022-12-25T07:40:38.519Z,12.82
2022-12-25T07:43:05.361Z,12.05
2022-12-25T07:45:32.059Z,16.60
2022-12-25T07:48:04.451Z,10.60
2022-12-25T07:50:32.371Z,9.85
2022-12-25T07:52:59.151Z,14.43
2022-12-25T07:55:25.864Z,9.82
2022-12-25T07:57:52.580Z,15.55
2022-12-25T08:00:19.615Z,14.65
2022-12-25T08:02:50.088Z,13.75
2022-12-25T08:05:16.914Z,10.77
2022-12-25T08:07:43.559Z,18.80
2022-12-25T08:10:10.593Z,13.27
2022-12-25T08:12:37.256Z,11.60
2022-12-25T08:15:04.232Z,10.43
2022-12-25T08:17:30.846Z,14.65
2022-12-25T08:19:57.458Z,15.90
2022-12-25T08:22:24.085Z,18.80
2022-12-25T08:24:50.716Z,13.85
2022-12-25T08:27:17.386Z,13.77
2022-12-25T08:29:44.664Z,16.42
2022-12-25T08:32:11.279Z,12.52
2022-12-25T08:34:38.603Z,15.32
2022-12-25T08:37:05.337Z,13.55
2022-12-25T08:39:32.197Z,18.85
2022-12-25T08:41:58.776Z,14.70
2022-12-25T08:44:25.373Z,16.80
2022-12-25T08:46:52.017Z,12.82
2022-12-25T08:49:19.328Z,14.63
2022-12-25T08:51:46.080Z,12.32
2022-12-25T08:54:12.717Z,13.05
2022-12-25T08:56:39.456Z,10.55
2022-12-25T08:59:06.111Z,13.70
2022-12-25T09:01:32.790Z,12.20
2022-12-25T09:03:59.518Z,14.75
2022-12-25T09:06:26.189Z,14.00
2022-12-25T09:08:52.840Z,10.38
2022-12-25T09:11:20.575Z,13.85
2022-12-25T09:13:48.371Z,11.00
2022-12-25T09:16:20.467Z,12.32
2022-12-25T09:18:47.241Z,14.70
2022-12-25T09:21:15.662Z,13.38
2022-12-25T09:23:42.607Z,9.45
2022-12-25T09:26:12.271Z,9.70
2022-12-25T09:28:38.874Z,12.40
2022-12-25T09:31:06.026Z,14.45
2022-12-25T09:33:32.944Z,27.27
2022-12-25T09:36:05.116Z,19.45
2022-12-25T09:38:32.793Z,13.88
2022-12-25T09:41:22.486Z,12.00
2022-12-25T09:43:55.111Z,12.55
2022-12-25T09:46:28.010Z,12.75
2022-12-25T09:49:20.412Z,12.82
2022-12-25T09:51:51.492Z,8.15
2022-12-25T09:54:37.600Z,13.95
2022-12-25T09:57:05.012Z,10.60
2022-12-25T09:59:31.775Z,10.02
2022-12-25T10:02:21.930Z,15.10
2022-12-25T10:05:26.649Z,12.43
2022-12-25T10:08:21.363Z,12.48
2022-12-25T10:11:02.962Z,10.30
2022-12-25T10:14:02.036Z,13.30
2022-12-25T10:16:51.324Z,10.20
2022-12-25T10:19:28.041Z,8.77
2022-12-25T10:22:00.938Z,11.35
2022-12-25T10:24:38.022Z,9.50
2022-12-25T10:27:14.755Z,6.65
2022-12-25T10:29:42.510Z,9.95
2022-12-25T10:32:10.484Z,10.85
2022-12-25T10:34:40.646Z,9.00
2022-12-25T10:37:08.931Z,9.55
2022-12-25T10:39:39.605Z,8.25
2022-12-25T10:42:29.487Z,11.55
2022-12-25T10:45:00.095Z,7.20
2022-12-25T10:47:29.996Z,10.57
2022-12-25T10:49:57.661Z,8.85
2022-12-25T10:52:27.263Z,7.70
2022-12-25T10:54:54.759Z,11.68
2022-12-25T10:57:23.482Z,6.22
2022-12-25T10:59:52.561Z,8.02
2022-12-25T11:02:28.004Z,7.43
2022-12-25T11:05:02.474Z,11.60
2022-12-25T11:07:29.905Z,12.07
2022-12-25T11:10:05.622Z,9.32
2022-12-25T11:12:42.388Z,10.65
2022-12-25T11:15:30.619Z,10.30
2022-12-25T11:17:57.479Z,11.07
2022-12-25T11:20:25.017Z,8.75
2022-12-25T11:22:52.185Z,9.48
2022-12-25T11:25:27.901Z,13.05
2022-12-25T11:28:04.172Z,7.75
2022-12-25T11:30:33.209Z,10.85
2022-12-25T11:33:05.639Z,13.27
2022-12-25T11:35:42.837Z,8.73
2022-12-25T11:38:09.756Z,8.60
2022-12-25T11:40:40.480Z,9.80
2022-12-25T11:43:25.192Z,9.98
2022-12-25T11:46:15.069Z,11.82
2022-12-25T11:48:46.902Z,8.80
2022-12-25T11:54:14.319Z,10.75
2022-12-25T11:56:41.057Z,11.32
2022-12-25T11:59:17.754Z,8.70
2022-12-25T12:02:22.898Z,10.18
2022-12-25T12:05:00.875Z,6.88
2022-12-25T12:07:30.427Z,7.68
2022-12-25T12:10:21.362Z,9.50
2022-12-25T12:13:06.535Z,10.25
2022-12-25T12:15:45.957Z,10.65
2022-12-25T12:18:28.972Z,12.30
2022-12-25T12:21:10.499Z,13.25
2022-12-25T12:23:47.945Z,10.63
2022-12-25T12:26:23.748Z,10.35
2022-12-25T12:28:52.815Z,12.50
2022-12-25T12:31:19.803Z,11.88
2022-12-25T12:33:58.985Z,10.20
2022-12-25T12:36:36.060Z,8.38
2022-12-25T12:39:05.060Z,13.45
2022-12-25T12:41:46.188Z,10.70
2022-12-25T12:44:14.311Z,12.80
2022-12-25T12:46:51.539Z,8.02
2022-12-25T12:49:36.243Z,13.27
2022-12-25T12:52:26.397Z,17.10
2022-12-25T12:55:06.196Z,10.13
2022-12-25T12:57:39.590Z,8.23
2022-12-25T13:00:12.057Z,12.07
2022-12-25T13:03:16.458Z,13.43
2022-12-25T13:05:50.613Z,14.27
2022-12-25T13:09:02.756Z,14.25
2022-12-25T13:11:33.641Z,11.13
2022-12-25T13:14:02.869Z,11.30
2022-12-25T13:16:33.036Z,13.90
2022-12-25T13:19:04.857Z,14.95
2022-12-25T13:24:01.679Z,15.23
2022-12-25T13:26:29.512Z,13.52
2022-12-25T13:28:56.563Z,11.75
2022-12-25T13:31:29.285Z,13.60
2022-12-25T13:34:03.450Z,14.25
2022-12-25T13:36:36.048Z,12.27
2022-12-25T13:39:06.920Z,11.65
2022-12-25T13:42:04.613Z,16.70
2022-12-25T13:44:40.022Z,13.95
2022-12-25T13:47:22.164Z,11.70
2022-12-25T13:49:49.966Z,13.68
2022-12-25T13:52:21.052Z,15.77
2022-12-25T13:55:01.878Z,12.38
2022-12-25T13:57:32.741Z,16.60
2022-12-25T13:59:59.633Z,13.63
2022-12-25T14:02:31.769Z,14.90
2022-12-25T14:04:58.626Z,22.20
2022-12-25T14:07:26.021Z,24.05
2022-12-25T14:10:01.517Z,25.70
2022-12-25T14:12:30.239Z,17.25
2022-12-25T14:14:58.253Z,15.10
2022-12-25T14:17:25.518Z,20.20
2022-12-25T14:20:07.517Z,15.75
2022-12-25T14:22:35.892Z,16.20
2022-12-25T14:25:02.584Z,16.23
2022-12-25T14:27:32.665Z,14.93
2022-12-25T14:30:00.569Z,14.00
2022-12-25T14:32:30.487Z,17.02
2022-12-25T14:35:02.752Z,15.93
2022-12-25T14:37:32.325Z,13.85
2022-12-25T14:40:25.529Z,16.13
2022-12-25T14:42:57.536Z,16.25
2022-12-25T14:45:34.511Z,21.52
2022-12-25T14:48:18.536Z,17.17
2022-12-25T14:51:03.230Z,18.42
2022-12-25T14:56:20.173Z,15.68
2022-12-25T14:58:53.518Z,17.10
2022-12-25T15:01:38.814Z,18.05
2022-12-25T15:04:17.458Z,15.65
2022-12-25T15:06:56.644Z,13.98
2022-12-25T15:09:23.697Z,16.67
2022-12-25T15:11:52.168Z,16.88
2022-12-25T15:14:19.086Z,16.52
2022-12-25T15:16:48.930Z,17.80
2022-12-25T15:19:38.254Z,20.58
2022-12-25T15:22:05.567Z,14.45
2022-12-25T15:24:32.265Z,14.38
2022-12-25T15:27:00.553Z,17.20
2022-12-25T15:30:07.365Z,14.38
2022-12-25T15:32:20.104Z,15.88
2022-12-25T15:34:49.492Z,16.77
2022-12-25T15:37:18.003Z,17.67
2022-12-25T15:39:45.245Z,20.17
2022-12-25T15:42:16.974Z,20.52
2022-12-25T15:47:12.643Z,26.30
2022-12-25T15:49:39.632Z,20.20
2022-12-25T15:52:10.231Z,20.35
2022-12-25T15:54:36.880Z,18.40
2022-12-25T15:57:05.514Z,20.17
2022-12-25T15:59:33.083Z,16.45
2022-12-25T16:02:01.899Z,18.80
2022-12-25T16:04:31.260Z,24.85
2022-12-25T16:06:58.545Z,23.92
2022-12-25T16:09:26.474Z,21.70
2022-12-25T16:11:53.131Z,19.92
2022-12-25T16:14:20.027Z,18.77
2022-12-25T16:16:46.724Z,19.20
2022-12-25T16:19:13.409Z,20.42
2022-12-25T16:21:43.342Z,21.90
2022-12-25T16:24:10.095Z,20.45
2022-12-25T16:26:36.827Z,20.00
2022-12-25T16:29:07.247Z,20.83
2022-12-25T16:31:35.165Z,18.47
2022-12-25T16:34:02.203Z,17.15
2022-12-25T16:36:28.857Z,20.27
2022-12-25T16:38:55.587Z,19.42
2022-12-25T16:41:22.252Z,22.25
2022-12-25T16:43:49.019Z,25.52
2022-12-25T16:46:18.135Z,21.52
2022-12-25T16:48:45.392Z,21.50
2022-12-25T16:51:14.530Z,22.75
2022-12-25T16:53:41.738Z,22.10
2022-12-25T16:56:16.690Z,20.25
2022-12-25T16:58:46.598Z,21.77
2022-12-25T17:01:16.042Z,24.83
2022-12-25T17:03:43.060Z,24.23
2022-12-25T17:06:22.778Z,26.38
2022-12-25T17:08:50.563Z,20.88
2022-12-25T17:11:19.090Z,27.02
2022-12-25T17:13:48.869Z,24.13
2022-12-25T17:16:20.491Z,21.52
2022-12-25T17:18:47.212Z,24.23
2022-12-25T17:21:16.871Z,26.63
2022-12-25T17:23:45.012Z,27.30
2022-12-25T17:26:11.891Z,23.13
2022-12-25T17:28:38.713Z,25.40
2022-12-25T17:31:10.779Z,31.25
2022-12-25T17:33:39.250Z,31.02
2022-12-25T17:36:09.616Z,27.67
2022-12-25T17:38:36.668Z,33.33
2022-12-25T17:41:07.148Z,30.25
2022-12-25T17:43:35.659Z,30.02
2022-12-25T17:46:06.967Z,33.08
2022-12-25T17:48:36.133Z,29.05
2022-12-25T17:51:08.207Z,26.90
2022-12-25T17:53:36.356Z,32.50
2022-12-25T17:56:04.561Z,28.30
2022-12-25T17:58:31.742Z,26.15
2022-12-25T18:01:04.216Z,27.08
2022-12-25T18:03:30.930Z,26.88
2022-12-25T18:06:00.699Z,27.20
2022-12-25T18:08:32.429Z,29.90
2022-12-25T18:11:04.302Z,28.55
2022-12-25T18:13:31.081Z,25.92
2022-12-25T18:16:01.858Z,25.80
2022-12-25T18:18:28.811Z,23.60
2022-12-25T18:20:55.671Z,23.92
2022-12-25T18:23:22.392Z,29.75
2022-12-25T18:25:49.049Z,25.88
2022-12-25T18:28:16.184Z,35.00
2022-12-25T18:30:44.550Z,31.20
2022-12-25T18:33:11.933Z,34.08
2022-12-25T18:35:40.385Z,29.98
2022-12-25T18:38:09.202Z,24.83
2022-12-25T18:40:47.107Z,27.17
2022-12-25T18:43:14.437Z,29.42
2022-12-25T18:45:41.803Z,27.58
2022-12-25T18:48:09.477Z,30.52
2022-12-25T18:50:38.114Z,32.63
2022-12-25T18:53:06.021Z,34.30
2022-12-25T18:55:32.990Z,32.38
2022-12-25T18:57:59.599Z,29.92
2022-12-25T19:00:27.413Z,33.75
2022-12-25T19:02:58.785Z,71.22
2022-12-25T19:05:26.090Z,39.80
2022-12-25T19:07:52.790Z,43.35
2022-12-25T19:10:19.538Z,43.45
2022-12-25T19:12:46.397Z,69.45
2022-12-25T19:15:13.022Z,44.08
2022-12-25T19:17:39.642Z,36.58
2022-12-25T19:20:06.758Z,39.15
2022-12-25T19:22:33.404Z,34.83
2022-12-25T19:25:00.115Z,43.63
2022-12-25T19:27:26.777Z,34.40
2022-12-25T19:29:53.448Z,35.38
2022-12-25T19:32:20.093Z,25.42
2022-12-25T19:34:46.771Z,25.20
2022-12-25T19:37:14.710Z,19.35
2022-12-25T19:39:46.337Z,20.85
2022-12-25T19:42:15.917Z,20.83
2022-12-25T19:44:43.271Z,24.35
2022-12-25T19:47:10.907Z,19.48
2022-12-25T19:49:37.629Z,15.63
2022-12-25T19:52:04.529Z,17.65
2022-12-25T19:54:31.585Z,17.98
2022-12-25T19:56:58.271Z,19.00
2022-12-25T19:59:24.922Z,23.83
2022-12-25T20:01:51.757Z,16.85
2022-12-25T20:04:18.647Z,17.70
2022-12-25T20:06:45.682Z,18.63
2022-12-25T20:09:20.883Z,19.92
2022-12-25T20:11:48.306Z,20.48
2022-12-25T20:14:16.176Z,18.25
2022-12-25T20:16:43.804Z,17.98
2022-12-25T20:19:12.873Z,19.67
2022-12-25T20:21:40.072Z,20.88
2022-12-25T20:24:09.981Z,17.00
2022-12-25T20:26:38.138Z,21.65
2022-12-25T20:29:05.371Z,17.08
2022-12-25T20:31:34.056Z,21.10
2022-12-25T20:34:05.446Z,18.90
2022-12-25T20:36:36.683Z,20.05
2022-12-25T20:39:05.926Z,19.23
2022-12-25T20:41:32.622Z,17.20
2022-12-25T20:43:59.896Z,17.15
2022-12-25T20:46:26.900Z,18.88
2022-12-25T20:48:54.080Z,18.52
2022-12-25T20:51:25.977Z,19.65
2022-12-25T20:53:53.329Z,17.33
2022-12-25T20:56:21.941Z,17.10
2022-12-25T20:58:56.678Z,18.33
2022-12-25T21:01:23.688Z,22.13
2022-12-25T21:03:50.508Z,17.40
2022-12-25T21:06:17.234Z,18.17
2022-12-25T21:08:43.954Z,21.95
2022-12-25T21:11:10.763Z,24.13
2022-12-25T21:13:43.252Z,29.00
2022-12-25T21:16:16.574Z,29.20
2022-12-25T21:18:43.333Z,36.88
2022-12-25T21:21:10.201Z,34.58
2022-12-25T21:23:39.007Z,27.10
2022-12-25T21:26:11.339Z,25.58
2022-12-25T21:28:38.188Z,26.05
2022-12-25T21:31:05.999Z,26.83
2022-12-25T21:33:51.537Z,24.67
2022-12-25T21:36:24.127Z,26.25
2022-12-25T21:38:56.387Z,23.85
2022-12-25T21:41:23.691Z,19.67
2022-12-25T21:43:50.854Z,25.60
2022-12-25T21:46:18.517Z,24.42
2022-12-25T21:48:45.553Z,22.23
2022-12-25T21:51:35.875Z,25.67
2022-12-25T21:54:03.287Z,31.30
2022-12-25T21:56:31.913Z,29.95
2022-12-25T21:59:00.504Z,43.17
2022-12-25T22:01:28.675Z,35.53
2022-12-25T22:03:55.953Z,33.45
2022-12-25T22:06:54.989Z,26.77
2022-12-25T22:09:22.292Z,44.65
2022-12-25T22:12:07.816Z,31.88
2022-12-25T22:14:56.287Z,34.40
2022-12-25T22:17:47.647Z,25.48
2022-12-25T22:20:19.023Z,33.47
2022-12-25T22:22:45.966Z,27.67
2022-12-25T22:25:13.555Z,28.30
2022-12-25T22:27:41.943Z,29.25
2022-12-25T22:30:29.015Z,27.63
2022-12-25T22:32:56.173Z,30.00
2022-12-25T22:35:22.937Z,28.85
2022-12-25T22:37:50.045Z,34.63
2022-12-25T22:40:18.838Z,26.90
2022-12-25T22:42:46.493Z,29.65
2022-12-25T22:45:13.912Z,27.05
2022-12-25T22:47:41.040Z,27.58
2022-12-25T22:50:08.540Z,30.05
2022-12-25T22:52:36.012Z,28.45
2022-12-25T22:55:04.718Z,30.90
2022-12-25T22:57:31.391Z,26.30
2022-12-25T22:59:58.028Z,25.02
2022-12-25T23:02:24.776Z,22.40
2022-12-25T23:04:51.469Z,21.88
2022-12-25T23:07:18.394Z,22.05
2022-12-25T23:09:45.291Z,25.48
2022-12-25T23:12:32.015Z,20.23
2022-12-25T23:14:58.677Z,20.77
2022-12-25T23:17:44.110Z,21.05
2022-12-25T23:20:31.726Z,25.42
2022-12-25T23:23:17.165Z,16.88
2022-12-25T23:26:02.589Z,24.67
2022-12-25T23:28:47.972Z,20.73
2022-12-25T23:31:14.726Z,24.25
2022-12-25T23:33:41.431Z,23.58
2022-12-25T23:36:08.221Z,20.23
2022-12-25T23:38:34.844Z,22.17
2022-12-25T23:41:01.502Z,24.08
2022-12-25T23:43:28.119Z,22.58
2022-12-25T23:45:54.777Z,25.30
2022-12-25T23:48:21.370Z,25.40
2022-12-25T23:50:48.288Z,25.33
2022-12-25T23:53:14.948Z,18.52
2022-12-25T23:55:42.591Z,20.67
2022-12-25T23:58:09.530Z,23.55
